Scottsboro, Alabama
Current Conditions -  °F | °C
As of 2:55 PM on Tuesday 21 Oct 2014 (Local Time) from K4A6 Reporting Station
Clear Clear  
Wind Chill: 72°   Ceiling: Unl
Heat Index: 72°   Visibility: 10mi
Dew Point: 46°   Wind: 9mph
Humidity: 41%   Direction: 310°NW
Pressure: 30"   Gusts: NA
Location:  34.68°N, 86.08°W
Report Text: K4A6 211955Z AUTO 31008KT 10SM CLR 22/08 A3000 RMK AO2
Loading
Personal Weather Stations






























Interactive Weather Map
Tropical Storm Tracking
New forecast layout! Learn more

10-Day Weather Forecast

Advertisements
Track Severe Weather on mobile